Time;durP1;ratioP1;P1;durP2;ratioP2;P2;SDS_P1;SDS_P2;PMS_P1;PMS_P2;Temp;Humidity;BMP_temperature;BMP_pressure;BME280_temperature;BME280_humidity;BME280_pressure;Samples;Min_cycle;Max_cycle;Signal;HPM_P1;HPM_P2
2024/02/16 00:01:04;;;;;;;2.70;1.67;;;16.60;99.90;;;;;;5069781;28;20021;-77
2024/02/16 00:03:31;;;;;;;2.93;1.53;;;16.60;99.90;;;;;;5048916;28;20061;-75
2024/02/16 00:05:57;;;;;;;1.63;1.40;;;16.60;99.90;;;;;;5063422;28;20381;-75
2024/02/16 00:08:22;;;;;;;1.53;1.27;;;16.60;99.90;;;;;;5068814;28;20031;-79
2024/02/16 00:10:48;;;;;;;2.37;1.50;;;16.60;99.90;;;;;;5059771;28;20045;-75
2024/02/16 00:13:14;;;;;;;2.07;1.53;;;16.50;99.90;;;;;;5059775;28;20037;-81
2024/02/16 00:15:40;;;;;;;1.98;1.50;;;16.60;99.90;;;;;;5069180;28;20046;-79
2024/02/16 00:18:06;;;;;;;2.13;1.70;;;16.50;99.90;;;;;;5068642;28;20036;-76
2024/02/16 00:20:32;;;;;;;2.13;1.35;;;16.50;99.90;;;;;;5058624;28;20493;-75
2024/02/16 00:22:59;;;;;;;2.33;1.50;;;16.50;99.90;;;;;;5065868;28;20028;-76
2024/02/16 00:25:25;;;;;;;3.22;1.73;;;16.50;99.90;;;;;;5065386;28;20429;-76
2024/02/16 00:27:53;;;;;;;2.55;1.50;;;16.50;99.90;;;;;;5067191;28;20060;-77
2024/02/16 00:30:22;;;;;;;4.78;2.05;;;16.50;99.90;;;;;;5068295;28;20040;-75
2024/02/16 00:32:48;;;;;;;3.08;1.52;;;16.50;99.90;;;;;;5056708;28;20032;-78
2024/02/16 00:35:19;;;;;;;4.70;1.73;;;16.50;99.90;;;;;;5068069;28;20035;-77
2024/02/16 00:37:48;;;;;;;2.00;1.40;;;16.50;99.90;;;;;;5061853;28;20043;-75
2024/02/16 00:40:14;;;;;;;2.22;1.52;;;16.50;99.90;;;;;;5068640;28;20348;-76
2024/02/16 00:42:39;;;;;;;2.13;1.20;;;16.50;99.90;;;;;;5059250;28;20243;-76
2024/02/16 00:45:06;;;;;;;2.10;1.30;;;16.50;99.90;;;;;;5064136;28;20036;-79
2024/02/16 00:47:32;;;;;;;1.83;1.20;;;16.40;99.90;;;;;;5060691;28;20405;-79
2024/02/16 00:49:58;;;;;;;6.43;1.73;;;16.50;99.90;;;;;;5067387;28;20037;-80
2024/02/16 00:52:24;;;;;;;1.42;1.15;;;16.50;99.90;;;;;;5065322;28;20364;-78
2024/02/16 00:54:50;;;;;;;1.90;1.30;;;16.50;99.90;;;;;;5061474;28;20544;-81
2024/02/16 00:57:16;;;;;;;1.80;1.30;;;16.40;99.90;;;;;;5069094;28;20535;-75
2024/02/16 00:59:42;;;;;;;3.53;1.13;;;16.40;99.90;;;;;;5063002;28;20114;-78
2024/02/16 01:02:09;;;;;;;1.93;1.40;;;16.40;99.90;;;;;;5062659;28;20367;-79
2024/02/16 01:04:35;;;;;;;3.85;1.70;;;16.40;99.90;;;;;;5062574;28;20029;-80
2024/02/16 01:07:00;;;;;;;2.27;1.40;;;16.40;99.90;;;;;;5068166;28;20020;-78
2024/02/16 01:09:26;;;;;;;3.70;1.43;;;16.40;99.90;;;;;;5061945;28;20037;-80
2024/02/16 01:11:52;;;;;;;4.70;1.30;;;16.40;99.90;;;;;;5066253;28;20123;-75
2024/02/16 01:14:18;;;;;;;2.67;1.60;;;16.40;99.90;;;;;;5061764;28;20447;-80
2024/02/16 01:16:45;;;;;;;2.15;1.30;;;16.40;99.90;;;;;;5065513;28;20028;-75
2024/02/16 01:19:11;;;;;;;1.42;1.33;;;16.30;99.90;;;;;;5059357;28;20512;-78
2024/02/16 01:21:37;;;;;;;4.20;1.20;;;16.40;99.90;;;;;;5063250;28;20032;-79
2024/02/16 01:24:03;;;;;;;2.83;1.73;;;16.30;99.90;;;;;;5062907;28;20086;-76
2024/02/16 01:26:29;;;;;;;2.38;1.50;;;16.30;99.90;;;;;;5062581;28;20356;-78
2024/02/16 01:28:55;;;;;;;1.85;1.23;;;16.30;99.90;;;;;;5068492;28;20079;-77
2024/02/16 01:31:21;;;;;;;1.40;1.10;;;16.30;99.90;;;;;;5061513;28;20490;-76
2024/02/16 01:33:46;;;;;;;1.77;1.20;;;16.30;99.90;;;;;;5057394;28;20527;-76
2024/02/16 01:36:12;;;;;;;2.00;1.30;;;16.30;99.90;;;;;;5060867;28;20036;-76
2024/02/16 01:38:38;;;;;;;3.87;1.07;;;16.30;99.90;;;;;;5071139;28;20051;-79
2024/02/16 01:41:04;;;;;;;3.50;1.53;;;16.30;99.90;;;;;;5059067;28;20068;-79
2024/02/16 01:43:30;;;;;;;2.80;1.35;;;16.30;99.90;;;;;;5065422;28;20563;-78
2024/02/16 01:45:58;;;;;;;1.45;1.25;;;16.30;99.90;;;;;;5067282;28;20043;-76
2024/02/16 01:48:25;;;;;;;1.15;0.93;;;16.30;99.90;;;;;;5073304;28;20040;-77
2024/02/16 01:50:52;;;;;;;;;;;16.30;99.90;;;;;;5066138;28;20032;-78
2024/02/16 01:53:18;;;;;;;;;;;16.30;99.90;;;;;;5071133;28;19985;-78
2024/02/16 01:55:47;;;;;;;2.38;1.23;;;16.30;99.90;;;;;;5064980;28;19913;-77
2024/02/16 01:58:13;;;;;;;1.60;1.40;;;16.20;99.90;;;;;;5070862;28;20033;-79
2024/02/16 02:00:41;;;;;;;1.10;0.90;;;16.30;99.90;;;;;;5062468;28;20682;-76
2024/02/16 02:03:07;;;;;;;1.33;1.00;;;16.20;99.90;;;;;;5064480;28;20036;-78
2024/02/16 02:05:33;;;;;;;2.63;1.35;;;16.20;99.90;;;;;;5071684;28;20070;-76
2024/02/16 02:07:59;;;;;;;2.33;1.57;;;16.20;99.90;;;;;;5068152;28;20142;-75
2024/02/16 02:10:25;;;;;;;1.13;1.00;;;16.20;99.90;;;;;;5070055;28;20044;-77
2024/02/16 02:12:50;;;;;;;2.60;1.23;;;16.20;99.90;;;;;;5069310;28;20032;-80
2024/02/16 02:15:16;;;;;;;1.57;1.10;;;16.20;99.90;;;;;;5065869;28;20111;-79
2024/02/16 02:17:42;;;;;;;1.20;1.10;;;16.20;99.90;;;;;;5059833;28;20051;-78
2024/02/16 02:20:10;;;;;;;1.37;1.00;;;16.20;99.90;;;;;;5066726;28;20504;-76
2024/02/16 02:22:37;;;;;;;1.70;1.10;;;16.20;99.90;;;;;;5070405;28;20031;-77
2024/02/16 02:25:04;;;;;;;1.45;1.10;;;16.20;99.90;;;;;;5071403;28;20021;-77
2024/02/16 02:27:30;;;;;;;1.23;1.08;;;16.20;99.90;;;;;;5065810;28;20432;-76
2024/02/16 02:29:56;;;;;;;1.87;1.20;;;16.10;99.90;;;;;;5069818;28;20043;-76
2024/02/16 02:32:22;;;;;;;2.77;1.43;;;16.20;99.90;;;;;;5068346;28;20482;-75
2024/02/16 02:34:47;;;;;;;4.50;1.10;;;16.20;99.90;;;;;;5063319;28;20029;-81
2024/02/16 02:37:13;;;;;;;1.40;1.20;;;16.20;99.90;;;;;;5061724;28;20104;-78
2024/02/16 02:39:39;;;;;;;2.23;1.03;;;16.10;99.90;;;;;;5067394;28;20063;-75
2024/02/16 02:42:06;;;;;;;1.98;1.05;;;16.10;99.90;;;;;;5066376;28;20025;-79
2024/02/16 02:44:33;;;;;;;;;;;16.20;99.90;;;;;;5072869;28;20032;-76
2024/02/16 02:46:58;;;;;;;2.22;1.20;;;16.10;99.90;;;;;;5064444;28;20416;-79
2024/02/16 02:49:24;;;;;;;1.27;1.10;;;16.10;99.90;;;;;;5068334;28;20037;-77
2024/02/16 02:51:50;;;;;;;1.10;1.00;;;16.10;99.90;;;;;;5067925;28;20032;-77
2024/02/16 02:54:15;;;;;;;3.10;1.10;;;16.10;99.90;;;;;;5069822;28;20037;-76
2024/02/16 02:56:41;;;;;;;2.37;1.27;;;16.10;99.90;;;;;;5064055;28;20449;-77
2024/02/16 02:59:07;;;;;;;2.13;1.20;;;16.10;99.90;;;;;;5062556;28;20036;-81
2024/02/16 03:01:35;;;;;;;6.03;1.27;;;16.10;99.90;;;;;;5069403;28;20052;-76
2024/02/16 03:04:01;;;;;;;1.20;1.10;;;16.10;99.90;;;;;;5061984;28;20473;-81
2024/02/16 03:06:27;;;;;;;4.03;1.30;;;16.10;99.90;;;;;;5055245;28;20052;-77
2024/02/16 03:08:53;;;;;;;1.70;1.00;;;16.10;99.90;;;;;;5062843;28;20040;-76
2024/02/16 03:11:18;;;;;;;1.03;0.77;;;16.10;99.90;;;;;;5060182;28;20140;-77
2024/02/16 03:13:44;;;;;;;1.53;0.90;;;16.10;99.90;;;;;;5062099;28;20024;-77
2024/02/16 03:16:10;;;;;;;3.00;1.00;;;16.10;99.90;;;;;;5068087;28;20123;-76
2024/02/16 03:18:36;;;;;;;1.60;1.20;;;16.10;99.90;;;;;;5069885;28;20100;-77
2024/02/16 03:21:02;;;;;;;3.45;1.05;;;16.00;99.90;;;;;;5057952;28;20035;-80
2024/02/16 03:23:28;;;;;;;2.90;1.30;;;16.00;99.90;;;;;;5052815;28;20040;-76
2024/02/16 03:25:54;;;;;;;2.97;1.10;;;16.10;99.90;;;;;;5052540;28;20048;-77
2024/02/16 03:28:20;;;;;;;0.88;0.80;;;16.00;99.90;;;;;;5064631;28;20100;-78
2024/02/16 03:30:46;;;;;;;1.53;1.00;;;16.10;99.90;;;;;;5062591;28;20131;-80
2024/02/16 03:33:13;;;;;;;5.03;1.10;;;16.00;99.90;;;;;;5059964;28;20116;-77
2024/02/16 03:35:40;;;;;;;3.33;0.93;;;16.00;99.90;;;;;;5071598;28;20105;-78
2024/02/16 03:38:06;;;;;;;1.10;1.00;;;16.00;99.90;;;;;;5066539;28;20028;-78
2024/02/16 03:40:32;;;;;;;2.65;1.42;;;16.00;99.90;;;;;;5061849;28;20052;-80
2024/02/16 03:42:58;;;;;;;1.75;1.08;;;16.00;99.90;;;;;;5056904;28;20028;-76
2024/02/16 03:45:24;;;;;;;4.32;1.10;;;16.00;99.90;;;;;;5071022;28;20036;-77
2024/02/16 03:47:52;;;;;;;4.50;1.20;;;16.00;99.90;;;;;;5059225;28;20107;-76
2024/02/16 03:50:19;;;;;;;1.67;1.20;;;16.00;99.90;;;;;;5067221;28;20505;-81
2024/02/16 03:52:45;;;;;;;1.55;1.13;;;16.00;99.90;;;;;;5065102;28;20024;-78
2024/02/16 03:55:11;;;;;;;2.05;0.90;;;16.00;99.90;;;;;;5060315;28;20041;-78
2024/02/16 03:57:38;;;;;;;4.47;1.07;;;15.90;99.90;;;;;;5065075;28;20029;-77
2024/02/16 04:00:05;;;;;;;;;;;15.90;99.90;;;;;;5068627;28;20115;-77
2024/02/16 04:02:31;;;;;;;3.25;1.45;;;15.90;99.90;;;;;;5065830;28;20011;-77
2024/02/16 04:04:57;;;;;;;9.63;1.37;;;15.90;99.90;;;;;;5066661;28;20166;-76
2024/02/16 04:07:23;;;;;;;1.93;1.27;;;15.90;99.90;;;;;;5069902;28;20253;-76
2024/02/16 04:09:49;;;;;;;1.08;0.90;;;15.90;99.90;;;;;;5060220;28;20033;-81
2024/02/16 04:12:15;;;;;;;1.50;1.10;;;15.90;99.90;;;;;;5065566;28;20044;-77
2024/02/16 04:14:41;;;;;;;2.67;1.10;;;15.90;99.90;;;;;;5069099;28;20036;-75
2024/02/16 04:17:07;;;;;;;1.20;0.93;;;15.90;99.90;;;;;;5068539;28;20390;-76
2024/02/16 04:19:33;;;;;;;1.07;0.90;;;15.90;99.90;;;;;;5060980;28;20043;-76
2024/02/16 04:21:59;;;;;;;1.93;1.43;;;15.90;99.90;;;;;;5057417;28;20021;-77
2024/02/16 04:24:24;;;;;;;1.47;0.90;;;15.90;99.90;;;;;;5063132;28;20032;-76
2024/02/16 04:26:50;;;;;;;1.17;0.90;;;15.90;99.90;;;;;;5069771;28;20040;-75
2024/02/16 04:29:16;;;;;;;1.10;0.90;;;15.90;99.90;;;;;;5068148;28;20074;-79
2024/02/16 04:31:45;;;;;;;1.90;1.07;;;15.90;99.90;;;;;;5063552;28;20033;-75
2024/02/16 04:34:10;;;;;;;2.03;1.20;;;15.90;99.90;;;;;;5065124;28;20490;-79
2024/02/16 04:36:36;;;;;;;1.70;1.03;;;15.90;99.90;;;;;;5053957;28;20029;-80
2024/02/16 04:39:02;;;;;;;2.13;1.33;;;15.90;99.90;;;;;;5065276;28;20053;-78
2024/02/16 04:41:28;;;;;;;2.20;1.10;;;15.90;99.90;;;;;;5067285;28;20042;-76
2024/02/16 04:43:53;;;;;;;2.30;1.20;;;15.90;99.90;;;;;;5060115;28;20029;-75
2024/02/16 04:46:19;;;;;;;4.87;1.10;;;15.90;99.90;;;;;;5068353;28;20032;-77
2024/02/16 04:48:45;;;;;;;1.15;0.85;;;15.90;99.90;;;;;;5058713;28;20482;-76
2024/02/16 04:51:11;;;;;;;1.40;1.10;;;15.80;99.90;;;;;;5060352;28;20071;-78
2024/02/16 04:53:37;;;;;;;1.88;1.00;;;15.90;99.90;;;;;;5060782;28;20029;-78
2024/02/16 04:56:04;;;;;;;2.50;1.07;;;15.90;99.90;;;;;;5066775;28;20094;-78
2024/02/16 04:58:30;;;;;;;2.25;0.98;;;15.80;99.90;;;;;;5069428;28;20079;-77
2024/02/16 05:00:56;;;;;;;1.73;1.00;;;15.80;99.90;;;;;;5062027;28;20032;-76
2024/02/16 05:03:22;;;;;;;3.33;1.00;;;15.80;99.90;;;;;;5059599;28;20289;-77
2024/02/16 05:05:48;;;;;;;1.30;0.80;;;15.80;99.90;;;;;;5058630;28;20120;-78
2024/02/16 05:08:14;;;;;;;2.90;1.40;;;15.80;99.90;;;;;;5066209;28;20036;-78
2024/02/16 05:10:40;;;;;;;2.80;1.00;;;15.80;99.90;;;;;;5058598;28;20397;-76
2024/02/16 05:13:06;;;;;;;2.20;0.90;;;15.80;99.90;;;;;;5068388;28;20045;-77
2024/02/16 05:15:32;;;;;;;1.83;1.20;;;15.80;99.90;;;;;;5060563;28;20116;-77
2024/02/16 05:17:58;;;;;;;1.05;0.90;;;15.80;99.90;;;;;;5069780;28;20085;-76
2024/02/16 05:20:24;;;;;;;0.83;0.80;;;15.80;99.90;;;;;;5073427;28;20040;-77
2024/02/16 05:22:50;;;;;;;1.47;1.00;;;15.70;99.90;;;;;;5063215;28;20262;-79
2024/02/16 05:25:17;;;;;;;1.00;0.90;;;15.70;99.90;;;;;;5071829;28;20029;-78
2024/02/16 05:27:43;;;;;;;2.13;1.20;;;15.70;99.90;;;;;;5066532;28;20028;-78
2024/02/16 05:30:12;;;;;;;2.22;1.08;;;15.80;99.90;;;;;;5066745;28;20029;-77
2024/02/16 05:32:38;;;;;;;1.58;0.80;;;15.70;99.90;;;;;;5063750;28;20086;-78
2024/02/16 05:35:11;;;;;;;1.30;1.02;;;15.70;99.90;;;;;;5058949;28;20043;-79
2024/02/16 05:37:39;;;;;;;1.15;0.90;;;15.70;99.90;;;;;;5066059;28;20466;-76
2024/02/16 05:40:18;;;;;;;1.42;0.98;;;15.70;99.90;;;;;;5068275;28;20106;-77
2024/02/16 05:42:47;;;;;;;1.15;0.95;;;15.70;99.90;;;;;;5070264;28;20066;-78
2024/02/16 05:45:16;;;;;;;1.95;1.00;;;15.70;99.90;;;;;;5070086;28;20036;-78
2024/02/16 05:47:45;;;;;;;1.48;1.08;;;15.70;99.90;;;;;;5063780;28;20074;-76
2024/02/16 05:50:11;;;;;;;1.45;1.05;;;15.70;99.90;;;;;;5065355;28;20131;-79
2024/02/16 05:52:40;;;;;;;;;;;15.70;99.90;;;;;;5069375;28;20394;-80
2024/02/16 05:55:07;;;;;;;1.40;1.00;;;15.70;99.90;;;;;;5071131;28;20412;-76
2024/02/16 05:57:34;;;;;;;1.10;0.88;;;15.70;99.90;;;;;;5065811;28;20025;-78
2024/02/16 06:00:00;;;;;;;0.93;0.85;;;15.60;99.90;;;;;;5064616;28;20033;-78
2024/02/16 06:02:27;;;;;;;0.98;0.90;;;15.60;99.90;;;;;;5068816;28;20110;-76
2024/02/16 06:04:53;;;;;;;1.10;0.93;;;15.60;99.90;;;;;;5067587;28;20484;-78
2024/02/16 06:07:19;;;;;;;1.23;1.10;;;15.60;99.90;;;;;;5053264;28;20036;-76
2024/02/16 06:09:45;;;;;;;1.00;0.90;;;15.60;99.90;;;;;;5064066;28;20047;-76
2024/02/16 06:12:12;;;;;;;1.47;1.07;;;15.70;99.90;;;;;;5070469;28;20033;-77
2024/02/16 06:14:38;;;;;;;1.15;1.02;;;15.60;99.90;;;;;;5072856;28;20047;-75
2024/02/16 06:17:04;;;;;;;1.60;0.90;;;15.60;99.90;;;;;;5071565;28;20036;-77
2024/02/16 06:19:30;;;;;;;2.37;0.90;;;15.60;99.90;;;;;;5072701;28;20029;-79
2024/02/16 06:21:56;;;;;;;1.07;0.87;;;15.60;99.90;;;;;;5071260;28;20016;-75
2024/02/16 06:24:22;;;;;;;1.50;1.08;;;15.60;99.90;;;;;;5072637;28;20023;-75
2024/02/16 06:26:49;;;;;;;0.90;0.80;;;15.60;99.90;;;;;;5071477;28;20363;-76
2024/02/16 06:29:15;;;;;;;;;;;15.60;99.90;;;;;;5072834;28;20367;-77
2024/02/16 06:31:41;;;;;;;1.60;1.13;;;15.60;99.90;;;;;;5072636;28;19939;-77
2024/02/16 06:34:08;;;;;;;1.97;0.90;;;15.60;99.90;;;;;;5070962;28;20371;-81
2024/02/16 06:36:34;;;;;;;2.05;0.90;;;15.60;99.90;;;;;;5072119;28;20086;-79
2024/02/16 06:39:00;;;;;;;1.45;0.98;;;15.60;99.90;;;;;;5070884;28;20432;-76
2024/02/16 06:41:25;;;;;;;0.90;0.90;;;15.60;99.90;;;;;;5071045;28;20028;-78
2024/02/16 06:43:51;;;;;;;2.47;1.10;;;15.60;99.90;;;;;;5066482;28;20132;-76
2024/02/16 06:46:17;;;;;;;2.03;1.10;;;15.60;99.90;;;;;;5070221;28;20028;-76
2024/02/16 06:48:43;;;;;;;0.77;0.70;;;15.60;99.90;;;;;;5060184;28;20104;-79
2024/02/16 06:51:08;;;;;;;0.70;0.70;;;15.60;99.90;;;;;;5066097;28;20029;-75
2024/02/16 06:53:34;;;;;;;2.03;1.40;;;15.60;99.90;;;;;;5061880;28;20127;-77
2024/02/16 06:56:00;;;;;;;1.13;0.87;;;15.60;99.90;;;;;;5066762;28;20440;-77
2024/02/16 06:58:26;;;;;;;1.10;1.00;;;15.60;99.90;;;;;;5066817;28;20031;-79
2024/02/16 07:00:51;;;;;;;1.67;1.03;;;15.60;99.90;;;;;;5071015;28;20070;-78
2024/02/16 07:03:18;;;;;;;3.20;1.03;;;15.60;99.90;;;;;;5071213;28;20073;-79
2024/02/16 07:05:44;;;;;;;1.23;1.13;;;15.60;99.90;;;;;;5070674;28;20718;-79
2024/02/16 07:08:09;;;;;;;1.37;1.00;;;15.60;99.90;;;;;;5066871;28;20037;-78
2024/02/16 07:10:35;;;;;;;3.00;1.00;;;15.60;99.90;;;;;;5068286;28;20040;-77
2024/02/16 07:13:01;;;;;;;1.30;0.97;;;15.60;99.90;;;;;;5068945;28;20036;-77
2024/02/16 07:15:27;;;;;;;4.13;1.10;;;15.60;99.90;;;;;;5068729;28;20021;-75
2024/02/16 07:17:53;;;;;;;1.67;1.00;;;15.60;99.90;;;;;;5068025;28;20032;-78
2024/02/16 07:20:19;;;;;;;1.92;0.98;;;15.60;99.90;;;;;;5071843;28;20135;-79
2024/02/16 07:22:50;;;;;;;0.77;0.70;;;15.60;99.90;;;;;;5067018;28;20111;-76
2024/02/16 07:25:15;;;;;;;1.73;1.20;;;15.60;99.90;;;;;;5063251;28;20740;-75
2024/02/16 07:27:41;;;;;;;1.87;1.00;;;15.60;99.90;;;;;;5063370;28;20043;-75
2024/02/16 07:30:07;;;;;;;4.43;1.10;;;15.60;99.90;;;;;;5068795;28;20424;-76
2024/02/16 07:32:33;;;;;;;2.53;1.10;;;15.60;99.90;;;;;;5064782;28;20028;-77
2024/02/16 07:34:59;;;;;;;1.80;1.00;;;15.60;99.90;;;;;;5062737;28;20117;-77
2024/02/16 07:37:25;;;;;;;1.83;1.20;;;15.60;99.90;;;;;;5070336;28;20060;-75
2024/02/16 07:39:51;;;;;;;1.30;0.90;;;15.60;99.90;;;;;;5069105;28;20457;-74
2024/02/16 07:42:16;;;;;;;1.33;1.00;;;15.70;99.90;;;;;;5060828;28;20024;-77
2024/02/16 07:44:42;;;;;;;1.70;0.90;;;15.80;99.90;;;;;;5068545;28;20032;-79
2024/02/16 07:47:08;;;;;;;1.50;0.97;;;15.80;99.90;;;;;;5068761;28;20070;-76
2024/02/16 07:49:37;;;;;;;1.63;0.97;;;15.80;99.90;;;;;;5068413;28;20670;-75
2024/02/16 07:52:03;;;;;;;1.35;1.02;;;15.80;99.90;;;;;;5069535;28;20031;-75
2024/02/16 07:54:29;;;;;;;10.23;1.80;;;15.90;99.90;;;;;;5070484;28;20025;-77
2024/02/16 07:56:55;;;;;;;5.60;1.33;;;15.90;99.90;;;;;;5070164;28;20020;-76
2024/02/16 07:59:22;;;;;;;7.20;1.50;;;15.90;99.90;;;;;;5063495;28;20131;-78
2024/02/16 08:01:47;;;;;;;12.25;1.83;;;15.90;99.90;;;;;;5068434;28;20032;-77
2024/02/16 08:04:13;;;;;;;7.30;1.60;;;15.90;99.90;;;;;;5068797;28;20082;-77
2024/02/16 08:06:39;;;;;;;12.83;2.33;;;15.90;99.90;;;;;;5069885;28;20029;-75
2024/02/16 08:09:06;;;;;;;7.13;2.00;;;16.00;99.90;;;;;;5069343;28;20436;-76
2024/02/16 08:11:32;;;;;;;10.82;2.20;;;16.00;99.90;;;;;;5068139;28;20363;-79
2024/02/16 08:14:00;;;;;;;18.20;6.82;;;16.00;99.90;;;;;;5067717;28;20378;-75
2024/02/16 08:16:27;;;;;;;187.35;85.20;;;16.00;99.90;;;;;;5063388;28;20020;-76
2024/02/16 08:18:53;;;;;;;62.13;31.60;;;16.00;99.90;;;;;;5065280;28;20032;-80
2024/02/16 08:21:18;;;;;;;36.73;19.33;;;16.00;99.90;;;;;;5068673;28;20027;-76
2024/02/16 08:23:44;;;;;;;35.93;16.97;;;16.10;99.90;;;;;;5070127;28;20024;-76
2024/02/16 08:26:10;;;;;;;35.47;20.33;;;16.10;99.90;;;;;;5068913;28;20699;-75
2024/02/16 08:28:36;;;;;;;82.63;58.30;;;16.10;99.90;;;;;;5064290;28;20028;-77
2024/02/16 08:31:01;;;;;;;41.87;25.50;;;16.10;99.90;;;;;;5068151;28;20036;-80
2024/02/16 08:33:27;;;;;;;33.57;19.23;;;16.20;99.90;;;;;;5069392;28;20016;-77
2024/02/16 08:35:53;;;;;;;37.70;22.17;;;16.20;99.90;;;;;;5066988;28;20104;-75
2024/02/16 08:38:18;;;;;;;30.00;17.37;;;16.20;99.90;;;;;;5069484;28;20027;-76
2024/02/16 08:40:44;;;;;;;31.87;16.60;;;16.30;99.90;;;;;;5069496;28;20746;-78
2024/02/16 08:43:10;;;;;;;26.57;16.27;;;16.30;99.90;;;;;;5069410;28;20032;-76
2024/02/16 08:45:36;;;;;;;26.13;15.57;;;16.40;99.90;;;;;;5068590;28;20024;-77
2024/02/16 08:48:03;;;;;;;19.88;12.23;;;16.40;99.90;;;;;;5073020;28;20160;-78
2024/02/16 08:50:30;;;;;;;18.40;10.95;;;16.40;99.90;;;;;;5073018;28;20046;-76
2024/02/16 08:52:56;;;;;;;21.48;10.95;;;16.40;99.90;;;;;;5063331;28;20607;-76
2024/02/16 08:55:22;;;;;;;18.50;12.10;;;16.30;99.90;;;;;;5060063;28;20033;-75
2024/02/16 08:57:47;;;;;;;20.87;10.37;;;16.40;99.90;;;;;;5069133;28;20098;-78
2024/02/16 09:00:15;;;;;;;21.97;12.77;;;16.40;99.90;;;;;;5072375;28;20115;-77
2024/02/16 09:02:41;;;;;;;22.63;12.30;;;16.40;99.90;;;;;;5073288;28;20127;-76
2024/02/16 09:05:09;;;;;;;18.80;7.88;;;16.40;99.90;;;;;;5071033;28;20028;-75
2024/02/16 09:07:35;;;;;;;15.93;7.95;;;16.40;99.90;;;;;;5071635;28;20482;-76
2024/02/16 09:10:01;;;;;;;16.27;8.35;;;16.40;99.90;;;;;;5072959;28;20043;-76
2024/02/16 09:12:27;;;;;;;17.88;8.50;;;16.40;99.90;;;;;;5073121;28;20119;-79
2024/02/16 09:14:53;;;;;;;16.37;9.13;;;16.40;99.90;;;;;;5073130;28;20100;-77
2024/02/16 09:17:20;;;;;;;15.73;9.93;;;16.30;99.90;;;;;;5073234;28;20027;-75
2024/02/16 09:19:46;;;;;;;20.58;9.43;;;16.30;99.90;;;;;;5072047;28;20024;-75
2024/02/16 09:22:11;;;;;;;13.33;8.13;;;16.30;99.90;;;;;;5072962;28;20432;-77
2024/02/16 09:24:37;;;;;;;13.97;8.13;;;16.40;99.90;;;;;;5073039;28;20337;-75
2024/02/16 09:27:04;;;;;;;20.20;7.83;;;16.40;99.90;;;;;;5072873;28;20052;-75
2024/02/16 09:29:30;;;;;;;;;;;16.40;99.90;;;;;;5067679;28;20439;-77
2024/02/16 09:31:56;;;;;;;15.95;7.63;;;16.40;99.90;;;;;;5070155;28;19912;-78
2024/02/16 09:34:21;;;;;;;12.93;7.37;;;16.40;99.90;;;;;;5073391;28;20033;-76
2024/02/16 09:36:47;;;;;;;13.97;8.10;;;16.40;99.90;;;;;;5069756;28;20032;-75
2024/02/16 09:39:13;;;;;;;12.23;7.30;;;16.40;99.90;;;;;;5073294;28;20052;-78
2024/02/16 09:41:42;;;;;;;15.07;7.73;;;16.40;99.90;;;;;;5072559;28;20116;-77
2024/02/16 09:44:07;;;;;;;13.13;7.50;;;16.40;99.90;;;;;;5072081;28;20111;-78
2024/02/16 09:46:33;;;;;;;11.90;6.73;;;16.40;99.90;;;;;;5065304;28;20116;-75
2024/02/16 09:49:03;;;;;;;13.52;7.25;;;16.40;99.90;;;;;;5073326;28;20524;-80
2024/02/16 09:51:30;;;;;;;10.27;6.90;;;16.40;99.90;;;;;;5071709;28;20039;-78
2024/02/16 09:53:56;;;;;;;12.60;6.82;;;16.50;99.90;;;;;;5073022;28;20066;-78
2024/02/16 09:56:24;;;;;;;14.85;7.25;;;16.50;99.90;;;;;;5070169;28;20036;-79
2024/02/16 09:58:51;;;;;;;17.42;9.18;;;16.50;99.90;;;;;;5069173;28;20043;-79
2024/02/16 10:01:21;;;;;;;37.42;20.05;;;16.50;99.90;;;;;;5069327;28;20025;-79
2024/02/16 10:03:48;;;;;;;33.60;15.68;;;16.50;99.90;;;;;;5071611;28;20458;-79
2024/02/16 10:06:15;;;;;;;24.73;14.98;;;16.50;99.90;;;;;;5071031;28;20497;-79
2024/02/16 10:08:56;;;;;;;28.50;17.02;;;16.50;99.90;;;;;;5071523;28;20025;-80
2024/02/16 10:11:24;;;;;;;24.25;15.00;;;16.50;99.90;;;;;;5071512;28;20390;-79
2024/02/16 10:14:03;;;;;;;29.08;14.32;;;16.50;99.90;;;;;;5070844;28;20078;-80
2024/02/16 10:16:30;;;;;;;22.63;12.25;;;16.50;99.90;;;;;;5068258;28;20056;-78
2024/02/16 10:19:04;;;;;;;21.45;11.73;;;16.50;99.90;;;;;;5071885;28;20021;-79
2024/02/16 10:21:30;;;;;;;19.10;11.52;;;16.50;99.90;;;;;;5071461;28;20024;-79
2024/02/16 10:24:05;;;;;;;16.42;10.68;;;16.50;99.90;;;;;;5071305;28;20024;-78
2024/02/16 10:26:31;;;;;;;28.65;11.07;;;16.50;99.90;;;;;;5072208;28;20375;-78
2024/02/16 10:28:57;;;;;;;21.08;10.82;;;16.50;99.90;;;;;;5064361;28;20096;-80
2024/02/16 10:31:28;;;;;;;19.33;10.52;;;16.50;99.90;;;;;;5070721;28;20040;-79
2024/02/16 10:34:05;;;;;;;22.50;10.50;;;16.50;99.90;;;;;;5062625;28;20445;-79
2024/02/16 10:36:33;;;;;;;18.80;9.95;;;16.50;99.90;;;;;;5071898;28;20035;-79
2024/02/16 10:38:59;;;;;;;25.25;11.85;;;16.50;99.90;;;;;;5085579;28;20052;-79
2024/02/16 10:41:29;;;;;;;19.13;10.48;;;16.50;99.90;;;;;;5070184;28;20028;-78
2024/02/16 10:43:56;;;;;;;20.40;10.15;;;16.50;99.90;;;;;;5070824;28;20116;-79
2024/02/16 10:46:24;;;;;;;19.83;11.65;;;16.50;99.90;;;;;;5070968;28;20020;-78
2024/02/16 10:48:50;;;;;;;17.40;9.55;;;16.60;99.90;;;;;;5068172;28;20078;-79
2024/02/16 10:51:19;;;;;;;18.48;8.93;;;16.60;99.90;;;;;;5070134;28;20029;-80
2024/02/16 10:53:47;;;;;;;20.83;10.13;;;16.60;99.90;;;;;;5069075;28;20094;-78
2024/02/16 10:56:13;;;;;;;19.85;10.65;;;16.60;99.90;;;;;;5070506;28;20028;-78
2024/02/16 10:58:40;;;;;;;20.15;9.38;;;16.60;99.90;;;;;;5070369;28;20029;-78
2024/02/16 11:01:12;;;;;;;17.67;9.30;;;16.60;99.90;;;;;;5069866;28;20540;-79
2024/02/16 11:03:39;;;;;;;17.70;8.23;;;16.60;99.90;;;;;;5070673;28;20067;-78
2024/02/16 11:06:18;;;;;;;17.50;8.90;;;16.60;99.90;;;;;;5066649;28;20028;-77
2024/02/16 11:08:48;;;;;;;17.77;9.43;;;16.60;99.90;;;;;;5064893;28;20032;-79
2024/02/16 11:11:23;;;;;;;14.02;8.07;;;16.60;99.90;;;;;;5066130;28;20037;-80
2024/02/16 11:13:49;;;;;;;14.82;8.63;;;16.70;99.90;;;;;;5069260;28;20750;-76
2024/02/16 11:16:18;;;;;;;31.07;9.57;;;16.70;99.90;;;;;;5066477;28;20036;-79
2024/02/16 11:18:49;;;;;;;23.80;12.93;;;16.70;99.90;;;;;;5070027;28;20422;-77
2024/02/16 11:21:15;;;;;;;22.55;11.02;;;16.70;99.90;;;;;;5084227;28;20032;-78
2024/02/16 11:23:42;;;;;;;22.42;12.20;;;16.70;99.90;;;;;;5065421;28;20028;-77
2024/02/16 11:26:12;;;;;;;18.10;11.00;;;16.70;99.90;;;;;;5072668;28;20029;-79
2024/02/16 11:28:40;;;;;;;19.15;10.38;;;16.70;99.90;;;;;;5071765;28;20013;-79
2024/02/16 11:31:09;;;;;;;20.02;10.13;;;16.70;99.90;;;;;;5070965;28;20040;-80
2024/02/16 11:33:35;;;;;;;18.95;9.80;;;16.70;99.90;;;;;;5069832;28;20025;-79
2024/02/16 11:36:03;;;;;;;24.02;10.35;;;16.80;99.90;;;;;;5061614;28;20047;-77
2024/02/16 11:38:33;;;;;;;20.20;9.48;;;16.80;99.90;;;;;;5067719;28;20036;-78
2024/02/16 11:41:09;;;;;;;18.80;10.80;;;16.80;99.90;;;;;;5070666;28;20465;-78
2024/02/16 11:43:35;;;;;;;21.83;9.93;;;16.80;99.90;;;;;;5067012;28;20647;-79
2024/02/16 11:46:14;;;;;;;12.77;8.03;;;16.90;99.90;;;;;;5065760;28;20036;-78
2024/02/16 11:48:41;;;;;;;14.90;7.68;;;16.90;99.90;;;;;;5057784;28;20473;-77
2024/02/16 11:51:07;;;;;;;13.05;8.63;;;16.90;99.90;;;;;;5069315;28;20032;-77
2024/02/16 11:53:33;;;;;;;14.27;8.00;;;16.90;99.90;;;;;;5068984;28;20133;-77
2024/02/16 11:55:59;;;;;;;15.48;7.85;;;16.90;99.90;;;;;;5069316;28;20035;-78
2024/02/16 11:58:27;;;;;;;17.98;7.95;;;16.90;99.90;;;;;;5069511;28;20499;-76
2024/02/16 12:00:53;;;;;;;14.82;7.57;;;16.90;99.90;;;;;;5069649;28;20032;-78
2024/02/16 12:03:23;;;;;;;12.93;7.47;;;16.90;99.90;;;;;;5070830;28;20029;-78
2024/02/16 12:05:53;;;;;;;12.90;8.35;;;16.90;99.90;;;;;;5068550;28;21333;-78
2024/02/16 12:08:21;;;;;;;13.48;7.50;;;16.90;99.90;;;;;;5082678;28;20029;-77
2024/02/16 12:10:49;;;;;;;14.43;6.30;;;16.90;99.90;;;;;;5062951;28;20033;-78
2024/02/16 12:13:19;;;;;;;12.30;6.68;;;16.90;99.90;;;;;;5068276;28;20029;-78
2024/02/16 12:15:46;;;;;;;16.92;7.60;;;16.90;99.90;;;;;;5069187;28;20032;-78
2024/02/16 12:18:25;;;;;;;14.30;7.57;;;17.00;99.90;;;;;;5067676;28;20051;-79
2024/02/16 12:21:05;;;;;;;13.85;6.82;;;17.00;99.90;;;;;;5068385;28;20040;-78
2024/02/16 12:23:32;;;;;;;11.32;6.43;;;17.10;99.90;;;;;;5066000;28;20056;-78
2024/02/16 12:26:01;;;;;;;13.32;6.00;;;17.10;99.90;;;;;;5068716;28;20048;-79
2024/02/16 12:28:29;;;;;;;24.23;6.95;;;17.10;99.90;;;;;;5065586;28;20056;-79
2024/02/16 12:30:55;;;;;;;15.07;6.53;;;17.30;99.90;;;;;;5067173;28;20032;-80
2024/02/16 12:33:24;;;;;;;16.65;5.93;;;17.40;99.90;;;;;;5068285;28;20072;-80
2024/02/16 12:35:51;;;;;;;19.08;6.53;;;17.50;99.90;;;;;;5058613;28;20393;-80
2024/02/16 12:38:19;;;;;;;18.80;6.38;;;17.40;99.90;;;;;;5059576;28;20385;-80
2024/02/16 12:40:47;;;;;;;11.60;6.35;;;17.40;99.90;;;;;;5059520;28;20127;-79